Huvudsida
METAR-TAF:

METAR-TAF

Flygplatser :

Capo Bellavista

Tortolì, Italien

latitud: 39-56N, longitud: 009-43E, höjd: 138 m

Aktuellt väderrapport

Denna rapport gjordes för 1 timme och 24 minuter sedan, klockan 21:55 UTC
Vind 11 kt från syd
Temperatur 22°C
Fuktighet 94%
Tryck 1020 hPa
Sikt 10 km eller mer
Få moln på en höjd av 3000 ft

METAR: LIEB 132155Z 19011KT 9999 FEW030 22/21 Q1020 RMK SCT QUK / QUL / VIS MAR 20 KM MON INVIS VIS MIN 9999

Tid: 01:19 (23:19 UTC)


TAF: saknas

Aktuella väderrapporter och prognoser från 4000 flygplatser (METAR- och TAF-rapporter).

De tillgängliga stationerna syns som gula och röda prickar på kartan.

För musen över prickarna för att se namnen på stationerna.

Klicka sedan för att få väderrapporter och prognoser.

För att ändra kartan: Klicka på de gröna knapparna med ett svart kors på för att zooma in; den gröna knappen med ett streck på för att zooma ut; eller på de gröna pilarna för angränsande kartor.


METAR-TAF: